Time;durP1;ratioP1;P1;durP2;ratioP2;P2;SDS_P1;SDS_P2;PMS_P1;PMS_P2;Temp;Humidity;BMP_temperature;BMP_pressure;BME280_temperature;BME280_humidity;BME280_pressure;Samples;Min_cycle;Max_cycle;Signal;HPM_P1;HPM_P2
2022/08/18 00:01:55;;;;;;;;;;;;;;;;;;5090686;28;802;-77
2022/08/18 00:04:21;;;;;;;;;;;;;;;;;;5093818;28;1305;-76
2022/08/18 00:06:47;;;;;;;;;;;;;;;;;;5093553;28;1114;-76
2022/08/18 00:09:13;;;;;;;;;;;;;;;;;;5093627;28;734;-76
2022/08/18 00:11:40;;;;;;;;;;;;;;;;;;5093519;28;1075;-77
2022/08/18 00:14:09;;;;;;;;;;;;;;;;;;5093643;28;1314;-77
2022/08/18 00:16:36;;;;;;;;;;;;;;;;;;5075470;28;1273;-77
2022/08/18 00:19:03;;;;;;;;;;;;;;;;;;5093625;28;1902;-77
2022/08/18 00:21:29;;;;;;;;;;;;;;;;;;5074865;28;1558;-76
2022/08/18 00:23:55;;;;;;;;;;;;;;;;;;5075303;28;1442;-75
2022/08/18 00:26:22;;;;;;;;;;;;;;;;;;5075143;28;1374;-77
2022/08/18 00:28:48;;;;;;;;;;;;;;;;;;5093693;28;988;-75
2022/08/18 00:31:15;;;;;;;;;;;;;;;;;;5074949;28;1151;-76
2022/08/18 00:33:42;;;;;;;;;;;;;;;;;;5093285;28;1399;-76
2022/08/18 00:36:09;;;;;;;;;;;;;;;;;;5093369;28;972;-76
2022/08/18 00:38:35;;;;;;;;;;;;;;;;;;5093201;28;2254;-76
2022/08/18 00:41:01;;;;;;;;;;;;;;;;;;5093104;28;915;-76
2022/08/18 00:43:30;;;;;;;;;;;;;;;;;;5074812;28;1438;-77
2022/08/18 00:45:56;;;;;;;;;;;;;;;;;;5092791;28;1114;-76
2022/08/18 00:48:24;;;;;;;;;;;;;;;;;;5093135;28;940;-77
2022/08/18 00:50:52;;;;;;;;;;;;;;;;;;5093051;28;1056;-77
2022/08/18 00:53:19;;;;;;;;;;;;;;;;;;5092503;28;1306;-77
2022/08/18 00:55:47;;;;;;;;;;;;;;;;;;5092969;28;1142;-76
2022/08/18 00:58:15;;;;;;;;;;;;;;;;;;5092881;28;1977;-76
2022/08/18 01:00:42;;;;;;;;;;;;;;;;;;5092903;28;969;-76
2022/08/18 01:03:16;;;;;;;;;;;;;;;;;;5074160;28;1322;-76
2022/08/18 01:05:45;;;;;;;;;;;;;;;;;;5092893;28;1004;-76
2022/08/18 01:08:13;;;;;;;;;;;;;;;;;;5092753;28;976;-77
2022/08/18 01:10:40;;;;;;;;;;;;;;;;;;5074675;28;1222;-76
2022/08/18 01:13:06;;;;;;;;;;;;;;;;;;5092098;28;1255;-76
2022/08/18 01:15:32;;;;;;;;;;;;;;;;;;5092508;28;1071;-77
2022/08/18 01:23:42;;;;;;;;;;;;;;;;;;5029844;28;1332;-76
2022/08/18 01:26:08;;;;;;;;;;;;;;;;;;5077236;28;1076;-77
2022/08/18 01:28:34;;;;;;;;;;;;;;;;;;5092338;28;904;-77
2022/08/18 01:31:02;;;;;;;;;;;;;;;;;;5073985;28;1249;-76
2022/08/18 01:33:31;;;;;;;;;;;;;;;;;;5091912;28;1272;-76
2022/08/18 01:35:57;;;;;;;;;;;;;;;;;;5092277;28;858;-75
2022/08/18 01:38:25;;;;;;;;;;;;;;;;;;5073445;28;1901;-76
2022/08/18 01:40:53;;;;;;;;;;;;;;;;;;5073832;28;972;-76
2022/08/18 01:43:19;;;;;;;;;;;;;;;;;;5073374;28;1412;-77
2022/08/18 01:45:46;;;;;;;;;;;;;;;;;;5091899;28;702;-76
2022/08/18 01:48:12;;;;;;;;;;;;;;;;;;5073670;28;1179;-76
2022/08/18 01:50:40;;;;;;;;;;;;;;;;;;5091931;28;1071;-76
2022/08/18 01:53:10;;;;;;;;;;;;;;;;;;5073051;28;1483;-76
2022/08/18 01:55:37;;;;;;;;;;;;;;;;;;5073555;28;1115;-76
2022/08/18 01:58:05;;;;;;;;;;;;;;;;;;5073402;28;1273;-76
2022/08/18 02:00:32;;;;;;;;;;;;;;;;;;5074682;28;1910;-77
2022/08/18 02:02:58;;;;;;;;;;;;;;;;;;5073147;28;1327;-76
2022/08/18 02:05:27;;;;;;;;;;;;;;;;;;5073267;28;1415;-77
2022/08/18 02:07:54;;;;;;;;;;;;;;;;;;5091624;28;1079;-76
2022/08/18 02:10:20;;;;;;;;;;;;;;;;;;5091414;28;1014;-76
2022/08/18 02:12:46;;;;;;;;;;;;;;;;;;5072622;28;1185;-75
2022/08/18 02:15:13;;;;;;;;;;;;;;;;;;5091134;28;1339;-76
2022/08/18 02:17:40;;;;;;;;;;;;;;;;;;5091058;28;1482;-75
2022/08/18 02:20:07;;;;;;;;;;;;;;;;;;5091365;28;1973;-76
2022/08/18 02:22:33;;;;;;;;;;;;;;;;;;5091047;28;1139;-77
2022/08/18 02:25:00;;;;;;;;;;;;;;;;;;5091102;28;1369;-76
2022/08/18 02:27:27;;;;;;;;;;;;;;;;;;5073410;28;1395;-77
2022/08/18 02:29:53;;;;;;;;;;;;;;;;;;5091067;28;900;-76
2022/08/18 02:32:20;;;;;;;;;;;;;;;;;;5090892;28;852;-76
2022/08/18 02:34:47;;;;;;;;;;;;;;;;;;5091177;28;1329;-76
2022/08/18 02:37:13;;;;;;;;;;;;;;;;;;5072829;28;1188;-76
2022/08/18 02:39:40;;;;;;;;;;;;;;;;;;5091076;28;1902;-76
2022/08/18 02:42:07;;;;;;;;;;;;;;;;;;5072489;28;1299;-76
2022/08/18 02:44:34;;;;;;;;;;;;;;;;;;5091127;28;1288;-76
2022/08/18 02:47:00;;;;;;;;;;;;;;;;;;5073016;28;1304;-76
2022/08/18 02:49:28;;;;;;;;;;;;;;;;;;5090488;28;1009;-76
2022/08/18 02:51:54;;;;;;;;;;;;;;;;;;5090667;28;889;-76
2022/08/18 02:54:22;;;;;;;;;;;;;;;;;;5090652;28;1396;-76
2022/08/18 02:56:50;;;;;;;;;;;;;;;;;;5090976;28;997;-76
2022/08/18 02:59:18;;;;;;;;;;;;;;;;;;5090682;28;1910;-76
2022/08/18 03:01:44;;;;;;;;;;;;;;;;;;5090530;28;1131;-76
2022/08/18 03:04:13;;;;;;;;;;;;;;;;;;5090648;28;1382;-76
2022/08/18 03:06:40;;;;;;;;;;;;;;;;;;5072915;28;1316;-76
2022/08/18 03:09:07;;;;;;;;;;;;;;;;;;5072425;28;1305;-76
2022/08/18 03:11:33;;;;;;;;;;;;;;;;;;5090379;28;861;-76
2022/08/18 03:14:00;;;;;;;;;;;;;;;;;;5090790;28;1358;-77
2022/08/18 03:16:26;;;;;;;;;;;;;;;;;;5090558;28;980;-76
2022/08/18 03:18:53;;;;;;;;;;;;;;;;;;5090801;28;1981;-76
2022/08/18 03:21:20;;;;;;;;;;;;;;;;;;5072261;28;1304;-75
2022/08/18 03:23:48;;;;;;;;;;;;;;;;;;5090689;28;1399;-75
2022/08/18 03:26:16;;;;;;;;;;;;;;;;;;5091344;28;823;-76
2022/08/18 03:28:42;;;;;;;;;;;;;;;;;;5072804;28;829;-75
2022/08/18 03:31:09;;;;;;;;;;;;;;;;;;5090309;28;1062;-76
2022/08/18 03:33:36;;;;;;;;;;;;;;;;;;5072093;28;1348;-76
2022/08/18 03:36:03;;;;;;;;;;;;;;;;;;5090590;28;1059;-75
2022/08/18 03:38:29;;;;;;;;;;;;;;;;;;5075506;28;1431;-76
2022/08/18 03:40:57;;;;;;;;;;;;;;;;;;5076136;28;1973;-75
2022/08/18 03:43:23;;;;;;;;;;;;;;;;;;5093995;28;1426;-76
2022/08/18 03:45:50;;;;;;;;;;;;;;;;;;5076151;28;1175;-76
2022/08/18 03:48:16;;;;;;;;;;;;;;;;;;5094380;28;1072;-76
2022/08/18 03:50:43;;;;;;;;;;;;;;;;;;5094334;28;1015;-77
2022/08/18 03:53:10;;;;;;;;;;;;;;;;;;5093741;28;1809;-75
2022/08/18 03:55:39;;;;;;;;;;;;;;;;;;5094171;28;735;-76
2022/08/18 03:58:07;;;;;;;;;;;;;;;;;;5094331;28;980;-75
2022/08/18 04:00:33;;;;;;;;;;;;;;;;;;5088686;28;1913;-77
2022/08/18 04:03:02;;;;;;;;;;;;;;;;;;5083993;28;1584;-77
2022/08/18 04:05:28;;;;;;;;;;;;;;;;;;5089324;28;1198;-78
2022/08/18 04:07:56;;;;;;;;;;;;;;;;;;5055931;28;1115;-77
2022/08/18 04:10:22;;;;;;;;;;;;;;;;;;5088728;28;1466;-77
2022/08/18 04:12:48;;;;;;;;;;;;;;;;;;5066384;28;1666;-76
2022/08/18 04:15:16;;;;;;;;;;;;;;;;;;5074693;28;1416;-77
2022/08/18 04:17:44;;;;;;;;;;;;;;;;;;5094065;28;778;-79
2022/08/18 04:20:11;;;;;;;;;;;;;;;;;;5093564;28;1961;-77
2022/08/18 04:22:37;;;;;;;;;;;;;;;;;;5086369;28;1426;-76
2022/08/18 04:25:04;;;;;;;;;;;;;;;;;;5091894;28;1491;-76
2022/08/18 04:27:30;;;;;;;;;;;;;;;;;;5093858;28;1142;-77
2022/08/18 04:29:56;;;;;;;;;;;;;;;;;;5091847;28;1415;-76
2022/08/18 04:32:24;;;;;;;;;;;;;;;;;;5085212;28;1149;-76
2022/08/18 04:34:51;;;;;;;;;;;;;;;;;;5092719;28;1435;-78
2022/08/18 04:37:17;;;;;;;;;;;;;;;;;;5083487;28;1652;-74
2022/08/18 04:39:44;;;;;;;;;;;;;;;;;;5066415;28;1947;-74
2022/08/18 04:42:10;;;;;;;;;;;;;;;;;;5092694;28;1189;-76
2022/08/18 04:44:37;;;;;;;;;;;;;;;;;;5093116;28;1300;-74
2022/08/18 04:47:04;;;;;;;;;;;;;;;;;;5093160;28;1075;-75
2022/08/18 04:49:32;;;;;;;;;;;;;;;;;;5092837;28;830;-75
2022/08/18 04:54:42;;;;;;;;;;;;;;;;;;5092754;28;1345;-75
2022/08/18 04:57:09;;;;;;;;;;;;;;;;;;5092626;28;1223;-75
2022/08/18 04:59:36;;;;;;;;;;;;;;;;;;5074198;28;1906;-75
2022/08/18 05:02:04;;;;;;;;;;;;;;;;;;5092551;28;912;-75
2022/08/18 05:04:33;;;;;;;;;;;;;;;;;;5092657;28;1362;-75
2022/08/18 05:06:59;;;;;;;;;;;;;;;;;;5092812;28;1007;-75
2022/08/18 05:09:26;;;;;;;;;;;;;;;;;;5074485;28;1106;-75
2022/08/18 05:11:52;;;;;;;;;;;;;;;;;;5092650;28;881;-75
2022/08/18 05:14:18;;;;;;;;;;;;;;;;;;5074432;28;1317;-75
2022/08/18 05:16:45;;;;;;;;;;;;;;;;;;5074606;28;1225;-76
2022/08/18 05:19:11;;;;;;;;;;;;;;;;;;5092812;28;1110;-76
2022/08/18 05:21:39;;;;;;;;;;;;;;;;;;5092428;28;1981;-76
2022/08/18 05:24:06;;;;;;;;;;;;;;;;;;5092304;28;1386;-76
2022/08/18 05:26:32;;;;;;;;;;;;;;;;;;5092361;28;1075;-73
2022/08/18 05:28:58;;;;;;;;;;;;;;;;;;5092182;28;1075;-75
2022/08/18 05:31:25;;;;;;;;;;;;;;;;;;5091911;28;1150;-76
2022/08/18 05:33:52;;;;;;;;;;;;;;;;;;5074076;28;1416;-75
2022/08/18 05:36:21;;;;;;;;;;;;;;;;;;5092434;28;1110;-75
2022/08/18 05:38:51;;;;;;;;;;;;;;;;;;5092195;28;1063;-75
2022/08/18 05:41:19;;;;;;;;;;;;;;;;;;5107476;28;1922;-72
2022/08/18 05:43:46;;;;;;;;;;;;;;;;;;5092116;28;1356;-75
2022/08/18 05:46:12;;;;;;;;;;;;;;;;;;5091850;28;1035;-74
2022/08/18 05:48:38;;;;;;;;;;;;;;;;;;5091764;28;790;-75
2022/08/18 05:51:16;;;;;;;;;;;;;;;;;;5092097;28;798;-75
2022/08/18 05:56:48;;;;;;;;;;;;;;;;;;5091789;28;1047;-75
2022/08/18 05:59:20;;;;;;;;;;;;;;;;;;5091628;28;953;-74
2022/08/18 06:01:50;;;;;;;;;;;;;;;;;;5072718;28;1910;-76
2022/08/18 06:04:19;;;;;;;;;;;;;;;;;;5090952;28;1421;-75
2022/08/18 06:06:47;;;;;;;;;;;;;;;;;;5091775;28;727;-75
2022/08/18 06:09:15;;;;;;;;;;;;;;;;;;5091390;28;1064;-76
2022/08/18 06:11:43;;;;;;;;;;;;;;;;;;5073254;28;1379;-76
2022/08/18 06:14:09;;;;;;;;;;;;;;;;;;5091705;28;1323;-76
2022/08/18 06:16:38;;;;;;;;;;;;;;;;;;5091559;28;1127;-76
2022/08/18 06:19:07;;;;;;;;;;;;;;;;;;5091444;28;1126;-76
2022/08/18 06:21:36;;;;;;;;;;;;;;;;;;5072922;28;1918;-77
2022/08/18 06:24:05;;;;;;;;;;;;;;;;;;5091098;28;1309;-75
2022/08/18 06:26:33;;;;;;;;;;;;;;;;;;5091370;28;1185;-75
2022/08/18 06:29:03;;;;;;;;;;;;;;;;;;5091444;28;1118;-76
2022/08/18 06:31:31;;;;;;;;;;;;;;;;;;5090562;28;1506;-76
2022/08/18 06:33:59;;;;;;;;;;;;;;;;;;5089460;28;1309;-76
2022/08/18 06:36:27;;;;;;;;;;;;;;;;;;5089099;28;914;-75
2022/08/18 06:38:56;;;;;;;;;;;;;;;;;;5089395;28;1123;-76
2022/08/18 06:41:24;;;;;;;;;;;;;;;;;;5088531;28;1922;-76
2022/08/18 06:43:53;;;;;;;;;;;;;;;;;;5089011;28;1311;-76
2022/08/18 06:46:22;;;;;;;;;;;;;;;;;;5089272;28;1367;-76
2022/08/18 06:48:50;;;;;;;;;;;;;;;;;;5072594;28;1171;-76
2022/08/18 06:51:19;;;;;;;;;;;;;;;;;;5090623;28;911;-76
2022/08/18 06:53:50;;;;;;;;;;;;;;;;;;5069418;28;1323;-76
2022/08/18 06:56:20;;;;;;;;;;;;;;;;;;5070471;28;1070;-76
2022/08/18 06:58:46;;;;;;;;;;;;;;;;;;5070898;28;1067;-77
2022/08/18 07:01:12;;;;;;;;;;;;;;;;;;5070683;28;1918;-76
2022/08/18 07:03:44;;;;;;;;;;;;;;;;;;5070474;28;1398;-76
2022/08/18 07:06:11;;;;;;;;;;;;;;;;;;5069427;28;1256;-76
2022/08/18 07:08:39;;;;;;;;;;;;;;;;;;5071010;28;1125;-76
2022/08/18 07:11:13;;;;;;;;;;;;;;;;;;5070362;28;1115;-76
2022/08/18 07:13:40;;;;;;;;;;;;;;;;;;5074670;28;1237;-76
2022/08/18 07:16:16;;;;;;;;;;;;;;;;;;5074447;28;1070;-76
2022/08/18 07:18:43;;;;;;;;;;;;;;;;;;5074626;28;1003;-75
2022/08/18 07:21:09;;;;;;;;;;;;;;;;;;5074368;28;1980;-76
2022/08/18 07:23:37;;;;;;;;;;;;;;;;;;5074357;28;1281;-75
2022/08/18 07:26:05;;;;;;;;;;;;;;;;;;5074495;28;826;-76
2022/08/18 07:28:32;;;;;;;;;;;;;;;;;;5074513;28;1051;-75
2022/08/18 07:31:18;;;;;;;;;;;;;;;;;;5074445;28;924;-75
2022/08/18 07:33:48;;;;;;;;;;;;;;;;;;5074499;28;1319;-75
2022/08/18 07:36:15;;;;;;;;;;;;;;;;;;5073955;28;1059;-76
2022/08/18 07:38:42;;;;;;;;;;;;;;;;;;5074243;28;1142;-75
2022/08/18 07:41:13;;;;;;;;;;;;;;;;;;5073902;28;1975;-75
2022/08/18 07:43:40;;;;;;;;;;;;;;;;;;5074156;28;1345;-76
2022/08/18 07:46:10;;;;;;;;;;;;;;;;;;5074055;28;1110;-76
2022/08/18 07:48:36;;;;;;;;;;;;;;;;;;5074183;28;1086;-76
2022/08/18 07:51:07;;;;;;;;;;;;;;;;;;5074166;28;786;-74
2022/08/18 07:53:36;;;;;;;;;;;;;;;;;;5072001;28;1386;-76
2022/08/18 07:56:04;;;;;;;;;;;;;;;;;;5074033;28;1130;-76
2022/08/18 07:58:32;;;;;;;;;;;;;;;;;;5074118;28;806;-77
2022/08/18 08:01:00;;;;;;;;;;;;;;;;;;5072572;28;1894;-76
2022/08/18 08:03:30;;;;;;;;;;;;;;;;;;5073763;28;1315;-75
2022/08/18 08:05:58;;;;;;;;;;;;;;;;;;5073933;28;1031;-75
2022/08/18 08:08:36;;;;;;;;;;;;;;;;;;5073512;28;1055;-75
2022/08/18 08:11:08;;;;;;;;;;;;;;;;;;5073325;28;865;-75
2022/08/18 08:13:36;;;;;;;;;;;;;;;;;;5073395;28;1383;-76
2022/08/18 08:16:04;;;;;;;;;;;;;;;;;;5072502;28;1262;-75
2022/08/18 08:18:34;;;;;;;;;;;;;;;;;;5073650;28;1091;-77
2022/08/18 08:21:02;;;;;;;;;;;;;;;;;;5073524;28;1984;-75
2022/08/18 08:23:30;;;;;;;;;;;;;;;;;;5072398;28;1300;-77
2022/08/18 08:26:00;;;;;;;;;;;;;;;;;;5073687;28;1001;-76
2022/08/18 08:28:30;;;;;;;;;;;;;;;;;;5073068;28;905;-77
2022/08/18 08:31:01;;;;;;;;;;;;;;;;;;5072989;28;1474;-75
2022/08/18 08:33:28;;;;;;;;;;;;;;;;;;5074016;28;1298;-75
2022/08/18 08:35:56;;;;;;;;;;;;;;;;;;5073272;28;1075;-76
2022/08/18 08:38:23;;;;;;;;;;;;;;;;;;5071853;28;1424;-75
2022/08/18 08:40:51;;;;;;;;;;;;;;;;;;5072996;28;1967;-75
2022/08/18 08:43:19;;;;;;;;;;;;;;;;;;5072434;28;1317;-76
2022/08/18 08:45:48;;;;;;;;;;;;;;;;;;5072892;28;1099;-75
2022/08/18 08:48:16;;;;;;;;;;;;;;;;;;5073117;28;943;-75
2022/08/18 08:50:44;;;;;;;;;;;;;;;;;;5072889;28;900;-75
2022/08/18 08:53:12;;;;;;;;;;;;;;;;;;5073438;28;1370;-75
2022/08/18 08:55:41;;;;;;;;;;;;;;;;;;5093189;28;889;-75
2022/08/18 08:58:12;;;;;;;;;;;;;;;;;;5092983;28;1071;-75
2022/08/18 09:00:39;;;;;;;;;;;;;;;;;;5093045;28;1914;-75
2022/08/18 09:03:09;;;;;;;;;;;;;;;;;;5092152;28;1284;-76
2022/08/18 09:05:36;;;;;;;;;;;;;;;;;;5092766;28;953;-76
2022/08/18 09:08:12;;;;;;;;;;;;;;;;;;5093416;28;944;-76
2022/08/18 09:10:42;;;;;;;;;;;;;;;;;;5092738;28;1059;-78
2022/08/18 09:13:15;;;;;;;;;;;;;;;;;;5093367;28;1302;-75
2022/08/18 09:15:43;;;;;;;;;;;;;;;;;;5092656;28;669;-75
2022/08/18 09:18:17;;;;;;;;;;;;;;;;;;5092583;28;1059;-75
2022/08/18 09:20:48;;;;;;;;;;;;;;;;;;5092501;28;1913;-76
2022/08/18 09:23:16;;;;;;;;;;;;;;;;;;5092084;28;1363;-75
2022/08/18 09:25:44;;;;;;;;;;;;;;;;;;5092516;28;1067;-75
2022/08/18 09:28:11;;;;;;;;;;;;;;;;;;5092248;28;940;-75
2022/08/18 09:30:43;;;;;;;;;;;;;;;;;;5092306;28;1095;-75
2022/08/18 09:33:17;;;;;;;;;;;;;;;;;;5091698;28;1312;-76
2022/08/18 09:35:47;;;;;;;;;;;;;;;;;;5091295;28;866;-75
2022/08/18 09:43:53;;;;;;;;;;;;;;;;;;5091974;28;1262;-76
2022/08/18 09:46:49;;;;;;;;;;;;;;;;;;5091936;28;1083;-76
2022/08/18 09:49:32;;;;;;;;;;;;;;;;;;5091823;28;1111;-76
2022/08/18 09:51:59;;;;;;;;;;;;;;;;;;5091411;28;1079;-75
2022/08/18 09:54:26;;;;;;;;;;;;;;;;;;5091593;28;1351;-77
2022/08/18 09:56:57;;;;;;;;;;;;;;;;;;5091855;28;1079;-75
2022/08/18 09:59:42;;;;;;;;;;;;;;;;;;5073423;28;1044;-78
2022/08/18 10:02:10;;;;;;;;;;;;;;;;;;5090514;28;1910;-78
2022/08/18 10:04:47;;;;;;;;;;;;;;;;;;5073263;28;1321;-77
2022/08/18 10:07:18;;;;;;;;;;;;;;;;;;5091638;28;1122;-77
2022/08/18 10:09:46;;;;;;;;;;;;;;;;;;5091563;28;1071;-76
2022/08/18 10:12:22;;;;;;;;;;;;;;;;;;5090989;28;1122;-78
2022/08/18 10:15:03;;;;;;;;;;;;;;;;;;5091126;28;1438;-77
2022/08/18 10:17:37;;;;;;;;;;;;;;;;;;5071654;28;1169;-78
2022/08/18 10:20:05;;;;;;;;;;;;;;;;;;5091621;28;787;-77
2022/08/18 10:22:43;;;;;;;;;;;;;;;;;;5091024;28;1975;-77
2022/08/18 10:25:10;;;;;;;;;;;;;;;;;;5091473;28;1312;-78
2022/08/18 10:27:51;;;;;;;;;;;;;;;;;;5090987;28;1581;-78
2022/08/18 10:30:38;;;;;;;;;;;;;;;;;;5072949;28;1056;-77
2022/08/18 10:33:06;;;;;;;;;;;;;;;;;;5090147;28;1503;-78
2022/08/18 10:35:51;;;;;;;;;;;;;;;;;;5091065;28;802;-78
2022/08/18 10:38:20;;;;;;;;;;;;;;;;;;5091318;28;1104;-78
2022/08/18 10:40:51;;;;;;;;;;;;;;;;;;5091251;28;1111;-78
2022/08/18 10:43:18;;;;;;;;;;;;;;;;;;5090900;28;1914;-78
2022/08/18 10:45:45;;;;;;;;;;;;;;;;;;5090806;28;924;-78
2022/08/18 10:48:15;;;;;;;;;;;;;;;;;;5073422;28;1267;-77
2022/08/18 10:50:43;;;;;;;;;;;;;;;;;;5090869;28;1075;-79
2022/08/18 10:53:10;;;;;;;;;;;;;;;;;;5072303;28;1370;-77
2022/08/18 10:55:40;;;;;;;;;;;;;;;;;;5091265;28;960;-78
2022/08/18 10:58:20;;;;;;;;;;;;;;;;;;5091074;28;1084;-76
2022/08/18 11:00:49;;;;;;;;;;;;;;;;;;5091203;28;861;-78
2022/08/18 11:03:18;;;;;;;;;;;;;;;;;;5090460;28;1909;-77
2022/08/18 11:05:44;;;;;;;;;;;;;;;;;;5091200;28;1030;-77
2022/08/18 11:08:12;;;;;;;;;;;;;;;;;;5090505;28;806;-78
2022/08/18 11:10:42;;;;;;;;;;;;;;;;;;5090840;28;1226;-77
2022/08/18 11:13:10;;;;;;;;;;;;;;;;;;5090450;28;1390;-78
2022/08/18 11:15:38;;;;;;;;;;;;;;;;;;5090815;28;1117;-77
2022/08/18 11:18:08;;;;;;;;;;;;;;;;;;5090930;28;1024;-77
2022/08/18 11:20:38;;;;;;;;;;;;;;;;;;5080494;28;978;-79
2022/08/18 11:23:06;;;;;;;;;;;;;;;;;;5081856;28;1912;-79
2022/08/18 11:25:33;;;;;;;;;;;;;;;;;;5089438;28;1503;-78
2022/08/18 11:28:00;;;;;;;;;;;;;;;;;;5091312;28;1102;-78
2022/08/18 11:30:27;;;;;;;;;;;;;;;;;;5090812;28;1138;-78
2022/08/18 11:32:53;;;;;;;;;;;;;;;;;;5073077;28;1601;-79
2022/08/18 11:35:20;;;;;;;;;;;;;;;;;;5090425;28;1365;-78
2022/08/18 11:37:48;;;;;;;;;;;;;;;;;;5090601;28;1083;-78
2022/08/18 11:40:23;;;;;;;;;;;;;;;;;;5090164;28;1079;-77
2022/08/18 11:42:52;;;;;;;;;;;;;;;;;;5089989;28;1913;-77
2022/08/18 11:45:18;;;;;;;;;;;;;;;;;;5089460;28;1455;-78
2022/08/18 11:47:58;;;;;;;;;;;;;;;;;;5090254;28;1418;-77
2022/08/18 11:50:26;;;;;;;;;;;;;;;;;;5068200;28;1088;-78
2022/08/18 11:52:55;;;;;;;;;;;;;;;;;;5072306;28;1103;-78
2022/08/18 11:55:22;;;;;;;;;;;;;;;;;;5051694;28;1512;-78
2022/08/18 11:57:52;;;;;;;;;;;;;;;;;;5070130;28;1367;-77
2022/08/18 12:00:42;;;;;;;;;;;;;;;;;;5073706;28;1037;-78
2022/08/18 12:03:09;;;;;;;;;;;;;;;;;;5057212;28;1977;-77
2022/08/18 12:05:43;;;;;;;;;;;;;;;;;;5074286;28;1114;-77
2022/08/18 12:08:17;;;;;;;;;;;;;;;;;;5092621;28;1363;-76
2022/08/18 12:10:44;;;;;;;;;;;;;;;;;;5075080;28;1346;-78
2022/08/18 12:13:10;;;;;;;;;;;;;;;;;;5066031;28;1423;-78
2022/08/18 12:15:37;;;;;;;;;;;;;;;;;;5091512;28;1334;-78
2022/08/18 12:18:03;;;;;;;;;;;;;;;;;;5093226;28;1319;-78
2022/08/18 12:20:29;;;;;;;;;;;;;;;;;;5092982;28;1142;-76
2022/08/18 12:22:56;;;;;;;;;;;;;;;;;;5091169;28;1914;-77
2022/08/18 12:25:23;;;;;;;;;;;;;;;;;;5080086;28;1529;-77
2022/08/18 12:27:50;;;;;;;;;;;;;;;;;;5091520;28;1517;-77
2022/08/18 12:30:16;;;;;;;;;;;;;;;;;;5092006;28;1407;-77
2022/08/18 12:32:43;;;;;;;;;;;;;;;;;;5093144;28;1067;-77
2022/08/18 12:35:10;;;;;;;;;;;;;;;;;;5093794;28;1377;-77
2022/08/18 12:37:37;;;;;;;;;;;;;;;;;;5093354;28;1079;-78
2022/08/18 12:40:04;;;;;;;;;;;;;;;;;;5092722;28;1333;-78
2022/08/18 12:42:33;;;;;;;;;;;;;;;;;;5090416;28;1967;-78
2022/08/18 12:44:59;;;;;;;;;;;;;;;;;;5093212;28;1402;-78
2022/08/18 12:47:26;;;;;;;;;;;;;;;;;;5093260;28;1083;-78
2022/08/18 12:49:52;;;;;;;;;;;;;;;;;;5068923;28;1448;-78
2022/08/18 12:52:19;;;;;;;;;;;;;;;;;;5090576;28;1397;-78
2022/08/18 12:54:45;;;;;;;;;;;;;;;;;;5078851;28;1410;-77
2022/08/18 12:57:13;;;;;;;;;;;;;;;;;;5087553;28;1514;-78
2022/08/18 12:59:40;;;;;;;;;;;;;;;;;;5085396;28;1569;-78
2022/08/18 13:02:08;;;;;;;;;;;;;;;;;;5089575;28;1922;-78
2022/08/18 13:04:34;;;;;;;;;;;;;;;;;;5084722;28;1467;-78
2022/08/18 13:07:02;;;;;;;;;;;;;;;;;;5084214;28;1540;-78
2022/08/18 13:09:29;;;;;;;;;;;;;;;;;;5084141;28;1565;-79
2022/08/18 13:11:55;;;;;;;;;;;;;;;;;;5092273;28;1156;-77
2022/08/18 13:14:21;;;;;;;;;;;;;;;;;;5089607;28;1821;-78
2022/08/18 13:16:50;;;;;;;;;;;;;;;;;;5073508;28;1648;-78
2022/08/18 13:19:16;;;;;;;;;;;;;;;;;;5088062;28;1544;-77
2022/08/18 13:21:42;;;;;;;;;;;;;;;;;;5089346;28;1754;-78
2022/08/18 13:24:09;;;;;;;;;;;;;;;;;;5085061;28;1882;-78
2022/08/18 13:26:36;;;;;;;;;;;;;;;;;;5092373;28;1075;-77
2022/08/18 13:29:02;;;;;;;;;;;;;;;;;;5087990;28;1362;-80
2022/08/18 13:31:28;;;;;;;;;;;;;;;;;;5073404;28;1163;-78
2022/08/18 13:33:56;;;;;;;;;;;;;;;;;;5092095;28;1316;-78
2022/08/18 13:36:22;;;;;;;;;;;;;;;;;;5091808;28;1019;-76
2022/08/18 13:38:49;;;;;;;;;;;;;;;;;;5091781;28;1158;-78
2022/08/18 13:41:15;;;;;;;;;;;;;;;;;;5075046;28;1379;-78
2022/08/18 13:43:42;;;;;;;;;;;;;;;;;;5071670;28;1969;-77
2022/08/18 13:46:09;;;;;;;;;;;;;;;;;;5084312;28;986;-76
2022/08/18 13:48:36;;;;;;;;;;;;;;;;;;5092143;28;1142;-77
2022/08/18 13:51:05;;;;;;;;;;;;;;;;;;5090482;28;1796;-77
2022/08/18 13:53:31;;;;;;;;;;;;;;;;;;5085519;28;1461;-78
2022/08/18 13:55:57;;;;;;;;;;;;;;;;;;5091915;28;1383;-76
2022/08/18 13:58:24;;;;;;;;;;;;;;;;;;5088889;28;1086;-76
2022/08/18 14:00:51;;;;;;;;;;;;;;;;;;5091666;28;894;-78
2022/08/18 14:03:22;;;;;;;;;;;;;;;;;;5072819;28;1906;-77
2022/08/18 14:05:48;;;;;;;;;;;;;;;;;;5091888;28;881;-77
2022/08/18 14:08:16;;;;;;;;;;;;;;;;;;5091516;28;1419;-77
2022/08/18 14:13:09;;;;;;;;;;;;;;;;;;5000010;28;1733;-78
2022/08/18 14:15:38;;;;;;;;;;;;;;;;;;5012797;28;1128;-78
2022/08/18 14:18:04;;;;;;;;;;;;;;;;;;5013990;28;1685;-78
2022/08/18 14:28:43;;;;;;;;;;;;;;;;;;4981567;28;1836;-76
2022/08/18 14:31:11;;;;;;;;;;;;;;;;;;5002972;28;1535;-76
2022/08/18 14:33:37;;;;;;;;;;;;;;;;;;4989111;28;1619;-76
2022/08/18 14:36:04;;;;;;;;;;;;;;;;;;4983747;28;1563;-77
2022/08/18 14:38:30;;;;;;;;;;;;;;;;;;4983125;28;1595;-75
2022/08/18 14:40:56;;;;;;;;;;;;;;;;;;4990281;28;1374;-75
2022/08/18 14:43:24;;;;;;;;;;;;;;;;;;4984938;28;1927;-76
2022/08/18 14:45:52;;;;;;;;;;;;;;;;;;4979487;28;1627;-77
2022/08/18 14:48:20;;;;;;;;;;;;;;;;;;4984618;28;1562;-75
2022/08/18 14:50:49;;;;;;;;;;;;;;;;;;4983834;28;1262;-76
2022/08/18 14:53:15;;;;;;;;;;;;;;;;;;4987860;28;1069;-76
2022/08/18 14:55:41;;;;;;;;;;;;;;;;;;4987950;28;1483;-75
2022/08/18 14:58:08;;;;;;;;;;;;;;;;;;4987550;28;1536;-75
2022/08/18 15:00:36;;;;;;;;;;;;;;;;;;4986426;28;1612;-76
2022/08/18 15:03:05;;;;;;;;;;;;;;;;;;4987352;28;1989;-74
2022/08/18 15:05:32;;;;;;;;;;;;;;;;;;4990776;28;1245;-75
2022/08/18 15:07:58;;;;;;;;;;;;;;;;;;4987594;28;1824;-74
2022/08/18 15:10:24;;;;;;;;;;;;;;;;;;4989159;28;1591;-74
2022/08/18 15:12:51;;;;;;;;;;;;;;;;;;4985439;28;1860;-74
2022/08/18 15:15:17;;;;;;;;;;;;;;;;;;4986219;28;1594;-74
2022/08/18 15:17:44;;;;;;;;;;;;;;;;;;4988403;28;1857;-74
2022/08/18 15:20:11;;;;;;;;;;;;;;;;;;4991063;28;1214;-74
2022/08/18 15:28:18;;;;;;;;;;;;;;;;;;4911537;29;1212;-74
2022/08/18 15:30:45;;;;;;;;;;;;;;;;;;4979733;28;2090;-74
2022/08/18 15:33:14;;;;;;;;;;;;;;;;;;4985745;28;1576;-74
2022/08/18 15:35:40;;;;;;;;;;;;;;;;;;4993745;28;1483;-74
2022/08/18 15:38:07;;;;;;;;;;;;;;;;;;4985238;28;1274;-75
2022/08/18 15:40:33;;;;;;;;;;;;;;;;;;4998643;28;1689;-74
2022/08/18 15:43:01;;;;;;;;;;;;;;;;;;4992704;28;1918;-75
2022/08/18 15:45:31;;;;;;;;;;;;;;;;;;4998280;28;1502;-75
2022/08/18 15:47:57;;;;;;;;;;;;;;;;;;4993122;28;1592;-75
2022/08/18 15:50:25;;;;;;;;;;;;;;;;;;4986919;28;1781;-76
2022/08/18 15:52:52;;;;;;;;;;;;;;;;;;4987538;28;1577;-75
2022/08/18 15:55:18;;;;;;;;;;;;;;;;;;4990136;28;1477;-75
2022/08/18 15:57:45;;;;;;;;;;;;;;;;;;4991335;28;1306;-75
2022/08/18 16:00:11;;;;;;;;;;;;;;;;;;4993145;28;1029;-75
2022/08/18 16:02:38;;;;;;;;;;;;;;;;;;4987386;28;1910;-74
2022/08/18 16:05:04;;;;;;;;;;;;;;;;;;4988764;28;1446;-75
2022/08/18 16:07:32;;;;;;;;;;;;;;;;;;5009731;28;1330;-75
2022/08/18 16:09:58;;;;;;;;;;;;;;;;;;4993296;28;1581;-75
2022/08/18 16:12:24;;;;;;;;;;;;;;;;;;4993671;28;1305;-75
2022/08/18 16:14:52;;;;;;;;;;;;;;;;;;4996139;28;929;-75
2022/08/18 16:17:19;;;;;;;;;;;;;;;;;;4994275;28;1068;-75
2022/08/18 16:19:45;;;;;;;;;;;;;;;;;;4996581;28;1528;-75
2022/08/18 16:22:12;;;;;;;;;;;;;;;;;;4993915;28;1313;-75
2022/08/18 16:24:39;;;;;;;;;;;;;;;;;;4994083;28;1911;-75
2022/08/18 16:27:07;;;;;;;;;;;;;;;;;;4993079;28;1216;-75
2022/08/18 16:29:34;;;;;;;;;;;;;;;;;;4994376;28;811;-75
2022/08/18 16:32:00;;;;;;;;;;;;;;;;;;4991312;28;1465;-75
2022/08/18 16:34:27;;;;;;;;;;;;;;;;;;4993293;28;1306;-74
2022/08/18 16:36:53;;;;;;;;;;;;;;;;;;4988929;28;1182;-75
2022/08/18 16:39:19;;;;;;;;;;;;;;;;;;4984454;28;1444;-74
2022/08/18 16:41:47;;;;;;;;;;;;;;;;;;4991245;28;1342;-74
2022/08/18 16:44:14;;;;;;;;;;;;;;;;;;4990437;28;1990;-74
2022/08/18 16:46:40;;;;;;;;;;;;;;;;;;4999546;28;1433;-74
2022/08/18 16:49:06;;;;;;;;;;;;;;;;;;4989624;28;1107;-74
2022/08/18 16:51:33;;;;;;;;;;;;;;;;;;4990218;28;1482;-74
2022/08/18 16:54:00;;;;;;;;;;;;;;;;;;4989247;28;1178;-74
2022/08/18 16:56:28;;;;;;;;;;;;;;;;;;4987541;28;1569;-74
2022/08/18 17:04:27;;;;;;;;;;;;;;;;;;5004437;28;1922;-75
2022/08/18 17:06:53;;;;;;;;;;;;;;;;;;4981862;28;1547;-74
2022/08/18 17:09:20;;;;;;;;;;;;;;;;;;4991273;28;1376;-75
2022/08/18 17:11:46;;;;;;;;;;;;;;;;;;4988889;28;1421;-75
2022/08/18 17:14:14;;;;;;;;;;;;;;;;;;4989269;28;1520;-75
2022/08/18 17:16:40;;;;;;;;;;;;;;;;;;4983221;28;1204;-75
2022/08/18 17:19:07;;;;;;;;;;;;;;;;;;4988216;28;1419;-75
2022/08/18 17:21:34;;;;;;;;;;;;;;;;;;4984758;28;1586;-75
2022/08/18 17:24:01;;;;;;;;;;;;;;;;;;4989771;28;1918;-75
2022/08/18 17:26:33;;;;;;;;;;;;;;;;;;4990743;28;954;-75
2022/08/18 17:29:01;;;;;;;;;;;;;;;;;;4986621;28;1373;-75
2022/08/18 17:31:29;;;;;;;;;;;;;;;;;;4981504;28;1426;-75
2022/08/18 17:33:56;;;;;;;;;;;;;;;;;;5001522;28;1390;-74
2022/08/18 17:36:23;;;;;;;;;;;;;;;;;;4976649;28;1370;-76
2022/08/18 17:38:50;;;;;;;;;;;;;;;;;;4986546;28;1135;-74
2022/08/18 17:41:17;;;;;;;;;;;;;;;;;;4984721;28;1496;-74
2022/08/18 17:43:44;;;;;;;;;;;;;;;;;;4980927;28;1974;-74
2022/08/18 17:46:12;;;;;;;;;;;;;;;;;;4990155;28;1119;-74
2022/08/18 17:48:41;;;;;;;;;;;;;;;;;;4986914;28;1484;-75
2022/08/18 17:53:52;;;;;;;;;;;;;;;;;;5004632;28;1363;-74